Time;durP1;ratioP1;P1;durP2;ratioP2;P2;SDS_P1;SDS_P2;PMS_P1;PMS_P2;Temp;Humidity;BMP_temperature;BMP_pressure;BME280_temperature;BME280_humidity;BME280_pressure;Samples;Min_cycle;Max_cycle;Signal;HPM_P1;HPM_P2
2022/10/16 00:00:41;;;;;;;2.80;2.60;;;15.50;99.90;;;;;;4927251;28;20197;-78
2022/10/16 00:03:09;;;;;;;3.97;3.73;;;15.50;99.90;;;;;;4919321;29;20208;-77
2022/10/16 00:05:40;;;;;;;11.13;10.53;;;15.50;99.90;;;;;;4943905;28;20225;-78
2022/10/16 00:08:07;;;;;;;5.07;4.77;;;15.50;99.90;;;;;;4926549;29;20209;-77
2022/10/16 00:10:35;;;;;;;8.30;7.80;;;15.50;99.90;;;;;;4946647;28;20197;-77
2022/10/16 00:13:02;;;;;;;6.10;5.60;;;15.50;99.90;;;;;;4924592;29;20622;-77
2022/10/16 00:15:29;;;;;;;2.90;2.70;;;15.50;99.90;;;;;;4926018;28;20210;-78
2022/10/16 00:17:57;;;;;;;4.80;4.50;;;15.50;99.90;;;;;;4944026;29;20597;-77
2022/10/16 00:20:24;;;;;;;6.73;6.33;;;15.40;99.90;;;;;;4925409;29;20211;-78
2022/10/16 00:22:51;;;;;;;10.50;9.90;;;15.40;99.90;;;;;;4927726;29;20201;-78
2022/10/16 00:25:18;;;;;;;10.20;9.60;;;15.40;99.90;;;;;;4951166;28;20216;-78
2022/10/16 00:27:44;;;;;;;10.13;9.53;;;15.30;99.90;;;;;;4930731;29;20194;-78
2022/10/16 00:30:12;;;;;;;10.60;10.00;;;15.30;99.90;;;;;;4926467;29;20308;-77
2022/10/16 00:32:38;;;;;;;10.37;9.67;;;15.30;99.90;;;;;;4945856;28;20201;-77
2022/10/16 00:35:07;;;;;;;9.83;9.23;;;15.20;99.90;;;;;;4947330;28;20206;-79
2022/10/16 00:37:34;;;;;;;10.50;9.80;;;15.20;99.90;;;;;;4950500;28;20291;-77
2022/10/16 00:40:01;;;;;;;10.33;9.73;;;15.20;99.90;;;;;;4921893;29;20228;-77
2022/10/16 00:42:28;;;;;;;10.30;9.80;;;15.20;99.90;;;;;;4921795;29;20253;-78
2022/10/16 00:44:56;;;;;;;9.93;9.43;;;15.20;99.90;;;;;;4921602;29;20208;-78
2022/10/16 00:47:28;;;;;;;10.20;9.60;;;15.20;99.90;;;;;;4924430;29;20236;-78
2022/10/16 00:49:59;;;;;;;10.47;9.87;;;15.10;99.90;;;;;;4927455;29;20209;-78
2022/10/16 00:52:28;;;;;;;10.50;9.90;;;15.10;99.90;;;;;;4921826;28;20266;-78
2022/10/16 00:54:55;;;;;;;10.30;9.70;;;15.10;99.90;;;;;;4946862;28;20199;-77
2022/10/16 00:57:23;;;;;;;10.33;9.73;;;15.00;99.90;;;;;;4924238;29;20723;-77
2022/10/16 00:59:49;;;;;;;10.37;9.77;;;15.00;99.90;;;;;;4946384;28;20669;-78
2022/10/16 01:02:17;;;;;;;10.40;9.80;;;15.00;99.90;;;;;;4948931;28;20208;-77
2022/10/16 01:04:48;;;;;;;10.30;9.70;;;14.90;99.90;;;;;;4923326;29;20220;-78
2022/10/16 01:07:24;;;;;;;10.30;9.70;;;14.90;99.90;;;;;;4926325;29;20228;-78
2022/10/16 01:10:03;;;;;;;10.40;9.80;;;14.90;99.90;;;;;;4926005;29;20298;-77
2022/10/16 01:12:37;;;;;;;11.00;10.30;;;14.90;99.90;;;;;;4946522;28;20195;-77
2022/10/16 01:15:12;;;;;;;10.50;9.90;;;14.90;99.90;;;;;;4924549;29;20659;-76
2022/10/16 01:17:45;;;;;;;10.60;10.00;;;14.90;99.90;;;;;;4948432;28;20210;-78
2022/10/16 01:20:20;;;;;;;10.27;9.67;;;14.90;99.90;;;;;;4947467;29;20199;-78
2022/10/16 01:23:00;;;;;;;10.53;9.93;;;14.90;99.90;;;;;;4921962;29;20628;-79
2022/10/16 01:25:40;;;;;;;10.60;10.00;;;15.00;99.90;;;;;;4948195;28;20602;-77
2022/10/16 01:28:12;;;;;;;10.37;9.77;;;15.00;99.90;;;;;;4922550;29;20214;-78
2022/10/16 01:30:41;;;;;;;10.60;10.00;;;15.00;99.90;;;;;;4948185;28;20245;-77
2022/10/16 01:33:13;;;;;;;10.57;9.97;;;14.90;99.90;;;;;;4948511;28;20205;-78
2022/10/16 01:35:44;;;;;;;10.90;10.30;;;14.90;99.90;;;;;;4924243;29;20224;-77
2022/10/16 01:38:15;;;;;;;11.30;10.60;;;14.80;99.90;;;;;;4954922;28;20215;-78
2022/10/16 01:40:47;;;;;;;11.20;10.50;;;14.80;99.90;;;;;;4929487;29;20194;-77
2022/10/16 01:43:19;;;;;;;11.10;10.40;;;14.70;99.90;;;;;;4926185;29;20211;-78
2022/10/16 01:45:47;;;;;;;11.07;10.40;;;14.60;99.90;;;;;;4927055;29;20228;-77
2022/10/16 01:48:17;;;;;;;10.83;10.23;;;14.60;99.90;;;;;;4921051;28;20207;-77
2022/10/16 01:50:46;;;;;;;10.90;10.30;;;14.50;99.90;;;;;;4920171;29;20199;-77
2022/10/16 01:53:15;;;;;;;7.03;6.50;;;14.50;99.90;;;;;;4928344;29;20206;-78
2022/10/16 01:55:45;;;;;;;5.87;5.47;;;14.50;99.90;;;;;;4920376;29;20244;-78
2022/10/16 01:58:14;;;;;;;7.47;6.87;;;14.50;99.90;;;;;;4948585;28;20573;-78
2022/10/16 02:00:45;;;;;;;6.40;5.00;;;14.50;99.90;;;;;;4922767;29;20675;-77
2022/10/16 02:03:15;;;;;;;3.70;3.40;;;14.50;99.90;;;;;;4946423;28;20204;-77
2022/10/16 02:05:46;;;;;;;4.23;3.83;;;14.40;99.90;;;;;;4926560;29;20240;-77
2022/10/16 02:08:13;;;;;;;6.60;6.13;;;14.50;99.90;;;;;;4927775;28;20220;-78
2022/10/16 02:10:40;;;;;;;8.07;7.30;;;14.50;99.90;;;;;;4919491;28;20195;-78
2022/10/16 02:13:10;;;;;;;9.70;8.90;;;14.40;99.90;;;;;;4927637;29;20213;-78
2022/10/16 02:15:38;;;;;;;7.53;7.03;;;14.50;99.90;;;;;;4946716;28;20220;-78
2022/10/16 02:18:07;;;;;;;7.87;7.37;;;14.50;99.90;;;;;;4947339;28;20274;-78
2022/10/16 02:20:41;;;;;;;8.40;7.90;;;14.50;99.90;;;;;;4942947;28;20205;-78
2022/10/16 02:23:11;;;;;;;9.90;9.20;;;14.50;99.90;;;;;;4924126;29;20214;-77
2022/10/16 02:25:42;;;;;;;9.43;8.83;;;14.50;99.90;;;;;;4947841;28;20262;-78
2022/10/16 02:28:16;;;;;;;9.20;8.60;;;14.50;99.90;;;;;;4927000;29;20209;-78
2022/10/16 02:30:48;;;;;;;9.40;8.80;;;14.50;99.90;;;;;;4928335;28;20201;-77
2022/10/16 02:33:19;;;;;;;9.63;9.03;;;14.50;99.90;;;;;;4946818;29;20230;-78
2022/10/16 02:35:48;;;;;;;9.57;8.97;;;14.50;99.90;;;;;;4927796;29;20222;-78
2022/10/16 02:38:17;;;;;;;9.53;8.93;;;14.50;99.90;;;;;;4922660;29;20589;-78
2022/10/16 02:40:44;;;;;;;8.93;8.13;;;14.50;99.90;;;;;;4924968;29;20207;-78
2022/10/16 02:43:12;;;;;;;5.30;5.00;;;14.40;99.90;;;;;;4945724;28;20217;-78
2022/10/16 02:45:39;;;;;;;8.53;7.93;;;14.40;99.90;;;;;;4948201;28;20219;-78
2022/10/16 02:48:06;;;;;;;13.47;12.67;;;14.40;99.90;;;;;;4926996;29;20213;-78
2022/10/16 02:50:34;;;;;;;11.63;10.93;;;14.30;99.90;;;;;;4929394;28;20202;-81
2022/10/16 02:53:02;;;;;;;12.00;11.20;;;14.30;99.90;;;;;;4920726;28;20567;-78
2022/10/16 02:55:29;;;;;;;11.70;11.00;;;14.30;99.90;;;;;;4939871;28;20704;-77
2022/10/16 02:57:55;;;;;;;12.10;11.40;;;14.30;99.90;;;;;;4935756;29;20203;-76
2022/10/16 03:00:23;;;;;;;12.40;11.60;;;14.30;99.90;;;;;;4929552;29;20217;-76
2022/10/16 03:02:51;;;;;;;11.40;10.70;;;14.30;99.90;;;;;;4925698;29;20204;-76
2022/10/16 03:05:18;;;;;;;11.77;11.07;;;14.30;99.90;;;;;;4918901;29;20197;-77
2022/10/16 03:07:46;;;;;;;11.87;11.17;;;14.30;99.90;;;;;;4920361;28;20592;-77
2022/10/16 03:10:13;;;;;;;11.87;11.17;;;14.30;99.90;;;;;;4943997;28;20208;-76
2022/10/16 03:12:40;;;;;;;12.73;11.83;;;14.30;99.90;;;;;;4923419;29;20203;-77
2022/10/16 03:15:08;;;;;;;12.67;11.87;;;14.30;99.90;;;;;;4919259;29;20266;-77
2022/10/16 03:17:35;;;;;;;12.90;12.10;;;14.30;99.90;;;;;;4943088;28;20214;-77
2022/10/16 03:20:01;;;;;;;12.70;11.90;;;14.20;99.90;;;;;;4949032;28;20196;-76
2022/10/16 03:22:28;;;;;;;12.73;11.83;;;14.20;99.90;;;;;;4939015;28;20236;-76
2022/10/16 03:24:56;;;;;;;12.83;12.03;;;14.20;99.90;;;;;;4945571;28;20203;-76
2022/10/16 03:27:23;;;;;;;12.90;12.03;;;14.20;99.90;;;;;;4921213;29;20226;-76
2022/10/16 03:29:50;;;;;;;12.70;11.90;;;14.20;99.90;;;;;;4922795;29;20196;-76
2022/10/16 03:32:18;;;;;;;12.13;11.43;;;14.20;99.90;;;;;;4944877;28;20260;-77
2022/10/16 03:34:45;;;;;;;11.20;10.40;;;14.20;99.90;;;;;;4946869;28;20222;-76
2022/10/16 03:37:12;;;;;;;11.60;10.90;;;14.20;99.90;;;;;;4920629;28;20226;-76
2022/10/16 03:39:39;;;;;;;12.70;11.80;;;14.20;99.90;;;;;;4917769;29;20669;-76
2022/10/16 03:42:07;;;;;;;12.73;11.77;;;14.20;99.90;;;;;;4947183;28;20217;-76
2022/10/16 03:44:34;;;;;;;12.20;11.50;;;14.30;99.90;;;;;;4928637;29;20204;-76
2022/10/16 03:47:00;;;;;;;12.47;11.77;;;14.30;99.90;;;;;;4949562;28;20211;-77
2022/10/16 03:49:27;;;;;;;12.40;11.70;;;14.30;99.90;;;;;;4926235;28;20218;-76
2022/10/16 03:51:54;;;;;;;12.83;12.03;;;14.20;99.90;;;;;;4931526;29;20209;-76
2022/10/16 03:54:22;;;;;;;12.33;11.63;;;14.20;99.90;;;;;;4928407;29;20206;-76
2022/10/16 03:56:49;;;;;;;12.93;11.93;;;14.20;99.90;;;;;;4925517;29;20217;-77
2022/10/16 03:59:17;;;;;;;12.37;11.67;;;14.20;99.90;;;;;;4919739;29;20302;-76
2022/10/16 04:01:44;;;;;;;12.20;11.50;;;14.20;99.90;;;;;;4929322;28;20665;-77
2022/10/16 04:04:11;;;;;;;12.23;11.53;;;14.20;99.90;;;;;;4926991;29;20294;-77
2022/10/16 04:06:38;;;;;;;12.20;11.50;;;14.20;99.90;;;;;;4923465;29;20227;-76
2022/10/16 04:09:05;;;;;;;12.73;12.00;;;14.10;99.90;;;;;;4925518;29;20208;-76
2022/10/16 04:11:32;;;;;;;12.87;12.07;;;14.20;99.90;;;;;;4937366;28;20191;-77
2022/10/16 04:13:59;;;;;;;13.07;12.33;;;14.10;99.90;;;;;;4925827;28;20206;-76
2022/10/16 04:16:27;;;;;;;12.63;11.93;;;14.10;99.90;;;;;;4937913;28;20233;-76
2022/10/16 04:18:54;;;;;;;12.70;11.90;;;14.10;99.90;;;;;;4937599;28;20306;-76
2022/10/16 04:21:22;;;;;;;12.87;12.17;;;14.10;99.90;;;;;;4923390;29;20203;-76
2022/10/16 04:23:49;;;;;;;12.90;12.10;;;14.10;99.90;;;;;;4937031;29;20648;-77
2022/10/16 04:26:16;;;;;;;12.90;12.20;;;14.10;99.90;;;;;;4932491;29;20230;-76
2022/10/16 04:28:48;;;;;;;12.87;12.00;;;14.10;99.90;;;;;;4923641;29;20207;-85
2022/10/16 04:31:15;;;;;;;12.73;12.03;;;14.10;99.90;;;;;;4946923;28;20205;-79
2022/10/16 04:33:45;;;;;;;12.57;11.87;;;14.10;99.90;;;;;;4942552;28;20196;-78
2022/10/16 04:36:12;;;;;;;13.47;12.40;;;14.10;99.90;;;;;;4926708;29;20314;-78
2022/10/16 04:38:39;;;;;;;13.50;12.70;;;14.10;99.90;;;;;;4943389;28;20590;-82
2022/10/16 04:41:06;;;;;;;13.03;12.33;;;14.10;99.90;;;;;;4928254;28;20681;-79
2022/10/16 04:43:34;;;;;;;13.37;12.57;;;14.10;99.90;;;;;;4918080;29;20299;-79
2022/10/16 04:46:01;;;;;;;12.63;11.93;;;14.10;99.90;;;;;;4943198;29;20215;-79
2022/10/16 04:48:28;;;;;;;12.50;11.80;;;14.10;99.90;;;;;;4926111;29;20318;-78
2022/10/16 04:50:57;;;;;;;13.60;12.80;;;14.10;99.90;;;;;;4927911;29;20206;-80
2022/10/16 04:53:24;;;;;;;12.83;12.13;;;14.10;99.90;;;;;;4946070;28;20199;-79
2022/10/16 04:55:51;;;;;;;12.80;12.10;;;14.10;99.90;;;;;;4950170;28;20218;-78
2022/10/16 04:58:18;;;;;;;13.30;12.50;;;14.10;99.90;;;;;;4954060;28;20550;-80
2022/10/16 05:00:46;;;;;;;13.83;13.03;;;14.00;99.90;;;;;;4928438;29;20202;-79
2022/10/16 05:03:13;;;;;;;13.50;12.70;;;14.10;99.90;;;;;;4947711;28;20224;-79
2022/10/16 05:05:44;;;;;;;13.70;12.80;;;14.00;99.90;;;;;;4947362;28;20223;-79
2022/10/16 05:08:13;;;;;;;13.20;12.40;;;14.10;99.90;;;;;;4951331;28;20689;-80
2022/10/16 05:10:41;;;;;;;13.57;12.77;;;14.00;99.90;;;;;;4952965;28;20201;-79
2022/10/16 05:13:08;;;;;;;13.80;12.97;;;14.10;99.90;;;;;;4931176;29;20239;-79
2022/10/16 05:15:35;;;;;;;12.87;12.07;;;14.10;99.90;;;;;;4936248;29;20224;-79
2022/10/16 05:18:02;;;;;;;12.50;11.80;;;14.00;99.90;;;;;;4953860;28;20275;-79
2022/10/16 05:20:29;;;;;;;13.00;12.17;;;14.00;99.90;;;;;;4934814;29;20290;-79
2022/10/16 05:22:56;;;;;;;12.63;11.93;;;14.00;99.90;;;;;;4925805;28;20650;-79
2022/10/16 05:25:25;;;;;;;13.07;12.37;;;13.90;99.90;;;;;;4925553;29;20205;-79
2022/10/16 05:27:52;;;;;;;13.60;12.70;;;13.90;99.90;;;;;;4930282;28;20217;-80
2022/10/16 05:30:20;;;;;;;13.57;12.77;;;13.90;99.90;;;;;;4930841;29;20699;-80
2022/10/16 05:32:51;;;;;;;13.00;12.30;;;13.80;99.90;;;;;;4929049;28;20195;-80
2022/10/16 05:35:19;;;;;;;13.00;12.30;;;13.80;99.90;;;;;;4923933;29;20221;-81
2022/10/16 05:37:54;;;;;;;13.33;12.53;;;13.80;99.90;;;;;;4931180;29;20932;-80
2022/10/16 05:40:21;;;;;;;14.20;13.40;;;13.80;99.90;;;;;;4927293;29;20755;-82
2022/10/16 05:42:49;;;;;;;13.67;12.80;;;13.70;99.90;;;;;;4927172;29;20224;-81
2022/10/16 05:45:16;;;;;;;12.93;12.13;;;13.70;99.90;;;;;;4955457;29;20293;-82
2022/10/16 05:47:43;;;;;;;13.27;12.10;;;13.70;99.90;;;;;;4934185;29;20210;-82
2022/10/16 05:50:10;;;;;;;12.87;12.17;;;13.70;99.90;;;;;;4958524;28;20657;-79
2022/10/16 05:52:37;;;;;;;13.33;12.63;;;13.70;99.90;;;;;;4946519;28;20203;-78
2022/10/16 05:55:05;;;;;;;12.93;12.23;;;13.70;99.90;;;;;;4941917;28;20447;-79
2022/10/16 05:57:32;;;;;;;12.87;12.17;;;13.70;99.90;;;;;;4930648;29;20215;-81
2022/10/16 06:00:01;;;;;;;12.87;12.17;;;13.70;99.90;;;;;;4949434;29;20198;-81
2022/10/16 06:02:28;;;;;;;13.07;12.27;;;13.80;99.90;;;;;;4931067;29;20207;-80
2022/10/16 06:04:55;;;;;;;12.90;12.10;;;13.80;99.90;;;;;;4926090;29;20195;-77
2022/10/16 06:07:23;;;;;;;12.80;12.10;;;13.90;99.90;;;;;;4919673;28;20285;-80
2022/10/16 06:09:51;;;;;;;13.23;12.53;;;13.90;99.90;;;;;;4938051;28;20269;-79
2022/10/16 06:12:21;;;;;;;13.17;12.47;;;14.00;99.90;;;;;;4927445;28;20231;-81
2022/10/16 06:14:49;;;;;;;13.83;13.03;;;14.10;99.90;;;;;;4946682;28;20204;-80
2022/10/16 06:17:17;;;;;;;12.90;12.20;;;14.20;99.90;;;;;;4963224;28;20737;-81
2022/10/16 06:19:45;;;;;;;13.27;12.47;;;14.20;99.90;;;;;;4925579;29;20203;-81
2022/10/16 06:22:12;;;;;;;13.67;12.60;;;14.20;99.90;;;;;;4952847;28;20198;-78
2022/10/16 06:24:39;;;;;;;10.13;9.33;;;14.30;99.90;;;;;;4953802;28;20210;-80
2022/10/16 06:27:08;;;;;;;7.37;6.87;;;14.30;99.90;;;;;;4939793;29;20234;-80
2022/10/16 06:29:35;;;;;;;4.93;4.63;;;14.40;99.90;;;;;;4921698;29;20289;-79
2022/10/16 06:32:02;;;;;;;8.17;7.67;;;14.30;99.90;;;;;;4931975;29;20194;-79
2022/10/16 06:34:31;;;;;;;5.77;5.17;;;14.30;99.90;;;;;;4931351;29;20196;-80
2022/10/16 06:36:58;;;;;;;6.40;5.87;;;14.40;99.90;;;;;;4946947;29;20305;-81
2022/10/16 06:39:32;;;;;;;3.70;3.50;;;14.40;99.90;;;;;;4939721;28;20208;-79
2022/10/16 06:41:59;;;;;;;3.67;3.40;;;14.50;99.90;;;;;;4931135;29;20217;-79
2022/10/16 06:44:38;;;;;;;4.27;3.70;;;14.60;99.90;;;;;;4931247;29;20216;-78
2022/10/16 06:47:05;;;;;;;12.03;11.33;;;14.70;99.90;;;;;;4926672;29;20320;-79
2022/10/16 06:49:37;;;;;;;12.83;12.03;;;14.90;99.90;;;;;;4922648;29;20216;-80
2022/10/16 06:52:09;;;;;;;7.10;4.73;;;15.00;99.90;;;;;;4944926;29;20194;-79
2022/10/16 06:54:39;;;;;;;4.17;3.73;;;15.10;99.90;;;;;;4924117;29;21214;-78
2022/10/16 06:57:06;;;;;;;5.10;4.60;;;15.20;99.90;;;;;;4923784;29;20276;-78
2022/10/16 06:59:32;;;;;;;6.00;4.70;;;15.30;99.90;;;;;;4928924;29;20895;-78
2022/10/16 07:01:59;;;;;;;5.10;4.60;;;15.40;99.90;;;;;;4929350;29;20575;-78
2022/10/16 07:04:26;;;;;;;4.80;4.40;;;15.40;99.90;;;;;;4925535;29;20264;-78
2022/10/16 07:06:55;;;;;;;4.97;4.43;;;15.50;99.90;;;;;;4927200;29;20232;-78
2022/10/16 07:09:23;;;;;;;6.40;5.90;;;15.50;99.90;;;;;;4943063;29;20210;-78
2022/10/16 07:11:52;;;;;;;4.97;3.90;;;15.60;99.90;;;;;;4942020;29;20201;-78
2022/10/16 07:14:25;;;;;;;4.73;4.33;;;15.60;99.90;;;;;;4931390;29;20191;-79
2022/10/16 07:16:54;;;;;;;4.00;3.70;;;15.70;99.90;;;;;;4948290;29;20212;-79
2022/10/16 07:19:21;;;;;;;7.33;6.77;;;15.80;99.90;;;;;;4931747;29;20841;-78
2022/10/16 07:21:48;;;;;;;4.70;4.30;;;15.80;99.90;;;;;;4947346;29;20209;-79
2022/10/16 07:24:17;;;;;;;4.27;3.87;;;15.90;99.90;;;;;;4945874;29;20246;-78
2022/10/16 07:26:46;;;;;;;5.20;4.57;;;16.00;99.90;;;;;;4943715;29;20224;-78
2022/10/16 07:29:14;;;;;;;4.43;4.03;;;16.10;99.90;;;;;;4925049;29;20872;-78
2022/10/16 07:31:42;;;;;;;4.10;3.80;;;16.20;99.90;;;;;;4925249;29;20204;-79
2022/10/16 07:34:10;;;;;;;4.23;3.83;;;16.30;99.90;;;;;;4946337;29;20214;-80
2022/10/16 07:36:42;;;;;;;11.37;10.67;;;16.40;99.90;;;;;;4930754;29;20214;-79
2022/10/16 07:39:12;;;;;;;10.40;9.70;;;16.40;99.90;;;;;;4931528;29;20204;-78
2022/10/16 07:41:45;;;;;;;8.00;7.50;;;16.50;99.90;;;;;;4944390;29;20202;-79
2022/10/16 07:44:15;;;;;;;5.97;5.57;;;16.60;99.90;;;;;;4929660;29;20215;-81
2022/10/16 07:46:45;;;;;;;4.70;4.30;;;16.60;99.90;;;;;;4926284;29;21074;-79
2022/10/16 07:49:13;;;;;;;6.50;6.00;;;16.70;99.90;;;;;;4926243;29;20946;-80
2022/10/16 07:51:41;;;;;;;7.10;6.70;;;16.80;99.90;;;;;;4943549;28;20213;-79
2022/10/16 07:54:09;;;;;;;11.67;10.80;;;16.90;99.90;;;;;;4927125;29;20333;-78
2022/10/16 07:56:43;;;;;;;6.60;6.20;;;16.90;99.90;;;;;;4926513;28;20628;-81
2022/10/16 07:59:10;;;;;;;3.40;3.20;;;17.00;99.90;;;;;;4944670;28;20191;-80
2022/10/16 08:01:38;;;;;;;3.13;2.93;;;17.20;99.90;;;;;;4942252;28;20203;-79
2022/10/16 08:04:07;;;;;;;10.57;9.70;;;17.30;99.90;;;;;;4926017;29;20213;-80
2022/10/16 08:06:38;;;;;;;9.37;8.67;;;17.50;99.90;;;;;;4928039;29;20310;-80
2022/10/16 08:09:05;;;;;;;8.10;7.27;;;17.60;99.90;;;;;;4927500;29;20301;-80
2022/10/16 08:11:32;;;;;;;9.40;8.80;;;17.60;99.90;;;;;;4927760;29;20731;-80
2022/10/16 08:14:02;;;;;;;8.00;7.50;;;17.60;99.90;;;;;;4926854;28;20203;-81
2022/10/16 08:16:30;;;;;;;9.13;8.60;;;17.60;99.90;;;;;;4944057;28;20225;-80
2022/10/16 08:19:04;;;;;;;10.20;9.30;;;17.60;99.90;;;;;;4934919;29;20226;-81
2022/10/16 08:21:33;;;;;;;9.13;8.43;;;17.60;99.90;;;;;;4932370;29;20569;-82
2022/10/16 08:24:00;;;;;;;4.73;4.23;;;17.60;99.90;;;;;;4929630;29;20214;-80
2022/10/16 08:26:28;;;;;;;5.90;5.43;;;17.80;99.90;;;;;;4918034;29;20250;-81
2022/10/16 08:28:56;;;;;;;9.53;8.93;;;18.00;99.90;;;;;;4925648;28;20601;-80
2022/10/16 08:31:27;;;;;;;10.57;9.87;;;18.10;99.90;;;;;;4930088;29;20217;-80
2022/10/16 08:33:56;;;;;;;9.53;8.80;;;18.30;99.90;;;;;;4918753;29;20740;-79
2022/10/16 08:36:23;;;;;;;9.97;9.27;;;18.40;99.90;;;;;;4925136;29;20226;-81
2022/10/16 08:38:53;;;;;;;6.80;6.40;;;18.70;99.90;;;;;;4918987;28;20198;-81
2022/10/16 08:41:36;;;;;;;7.17;6.67;;;18.80;99.90;;;;;;4948013;28;20197;-80
2022/10/16 08:44:33;;;;;;;3.97;3.47;;;18.90;99.90;;;;;;4948805;28;20688;-79
2022/10/16 08:47:11;;;;;;;3.50;3.20;;;19.00;99.90;;;;;;4934227;28;20268;-78
2022/10/16 08:49:42;;;;;;;4.13;3.67;;;19.10;99.90;;;;;;4942282;28;20209;-79
2022/10/16 08:52:13;;;;;;;4.47;3.07;;;19.10;99.90;;;;;;4932126;29;21162;-79
2022/10/16 08:54:45;;;;;;;3.87;3.20;;;19.00;99.90;;;;;;4934174;29;20214;-79
2022/10/16 08:57:17;;;;;;;3.60;3.30;;;19.00;99.90;;;;;;4949245;28;20226;-82
2022/10/16 08:59:44;;;;;;;3.30;3.00;;;19.20;99.90;;;;;;4922730;29;20210;-80
2022/10/16 09:02:27;;;;;;;3.30;3.00;;;19.30;99.90;;;;;;4931058;29;20206;-78
2022/10/16 09:05:04;;;;;;;9.27;8.57;;;19.30;99.90;;;;;;4923984;29;20563;-78
2022/10/16 09:07:38;;;;;;;10.53;9.83;;;19.30;99.90;;;;;;4938231;29;20233;-80
2022/10/16 09:10:28;;;;;;;5.50;4.20;;;19.40;99.90;;;;;;4927828;29;20213;-79
2022/10/16 09:13:01;;;;;;;3.13;2.90;;;19.60;99.90;;;;;;4923110;29;20199;-81
2022/10/16 09:15:36;;;;;;;5.17;4.87;;;19.80;99.90;;;;;;4925797;29;20675;-80
2022/10/16 09:18:12;;;;;;;8.90;8.40;;;19.80;99.90;;;;;;4931433;29;20213;-79
2022/10/16 09:20:49;;;;;;;5.90;5.50;;;20.00;99.90;;;;;;4939371;29;20236;-81
2022/10/16 09:23:19;;;;;;;3.07;2.80;;;20.20;99.90;;;;;;4947410;29;20199;-81
2022/10/16 09:25:49;;;;;;;3.90;3.10;;;20.50;99.90;;;;;;4949087;28;20524;-82
2022/10/16 09:28:18;;;;;;;3.07;2.80;;;20.60;99.90;;;;;;4930065;28;20311;-81
2022/10/16 09:30:48;;;;;;;8.40;7.80;;;20.80;99.90;;;;;;4948990;28;20288;-82
2022/10/16 09:33:22;;;;;;;5.37;5.00;;;20.90;99.90;;;;;;4931787;28;20234;-83
2022/10/16 09:35:51;;;;;;;2.83;2.63;;;20.80;99.90;;;;;;4923113;29;20289;-83
2022/10/16 09:38:26;;;;;;;2.90;2.70;;;20.70;99.90;;;;;;4938336;28;20283;-83
2022/10/16 09:40:54;;;;;;;3.00;2.80;;;20.60;99.90;;;;;;4951574;28;20680;-83
2022/10/16 09:43:27;;;;;;;3.17;2.97;;;20.60;99.90;;;;;;4935262;28;20680;-83
2022/10/16 09:45:56;;;;;;;2.57;2.40;;;20.70;99.90;;;;;;4953980;28;20219;-82
2022/10/16 09:48:27;;;;;;;6.90;6.50;;;20.90;99.90;;;;;;4934502;29;20590;-84
2022/10/16 09:50:59;;;;;;;9.87;9.27;;;20.90;99.90;;;;;;4920187;29;20199;-83
2022/10/16 09:53:37;;;;;;;8.73;8.23;;;20.90;99.90;;;;;;4951531;28;20579;-82
2022/10/16 09:56:06;;;;;;;7.97;7.53;;;20.90;99.90;;;;;;4928606;29;20238;-83
2022/10/16 09:58:33;;;;;;;7.00;6.60;;;20.90;99.90;;;;;;4926778;29;20688;-82
2022/10/16 10:01:01;;;;;;;3.23;2.90;;;20.80;99.90;;;;;;4928703;29;20290;-82
2022/10/16 10:03:38;;;;;;;2.97;2.77;;;20.70;99.90;;;;;;4920515;29;20203;-81
2022/10/16 10:06:17;;;;;;;8.30;7.80;;;20.60;99.90;;;;;;4928691;29;20236;-79
2022/10/16 10:08:57;;;;;;;3.83;3.63;;;20.60;99.90;;;;;;4945030;28;20281;-80
2022/10/16 10:11:44;;;;;;;4.87;3.67;;;20.50;99.90;;;;;;4947265;28;20222;-81
2022/10/16 10:14:23;;;;;;;2.87;2.67;;;20.50;99.90;;;;;;4952375;28;20206;-80
2022/10/16 10:16:52;;;;;;;3.03;2.83;;;20.50;99.90;;;;;;4948941;28;20221;-82
2022/10/16 10:19:22;;;;;;;2.80;2.60;;;20.40;99.90;;;;;;4928838;29;20206;-82
2022/10/16 10:21:49;;;;;;;9.67;9.10;;;20.30;99.90;;;;;;4928456;29;20207;-83
2022/10/16 10:24:18;;;;;;;8.90;8.40;;;20.20;99.90;;;;;;4943938;29;20209;-82
2022/10/16 10:26:55;;;;;;;10.63;10.03;;;20.20;99.90;;;;;;4944480;29;20700;-81
2022/10/16 10:29:35;;;;;;;10.37;9.77;;;20.40;99.90;;;;;;4931692;29;20229;-81
2022/10/16 10:32:13;;;;;;;10.47;9.87;;;20.70;99.90;;;;;;4925379;29;20203;-81
2022/10/16 10:34:55;;;;;;;10.80;10.20;;;21.10;99.90;;;;;;4927838;29;20206;-80
2022/10/16 10:37:38;;;;;;;3.20;3.00;;;21.50;99.90;;;;;;4944820;29;20238;-80
2022/10/16 10:40:12;;;;;;;3.10;2.90;;;21.80;99.90;;;;;;4924462;29;20206;-80
2022/10/16 10:42:47;;;;;;;2.90;2.70;;;22.10;99.90;;;;;;4942230;29;20209;-79
2022/10/16 10:45:28;;;;;;;4.87;4.47;;;22.30;99.90;;;;;;4945448;28;20194;-80
2022/10/16 10:48:07;;;;;;;7.50;7.00;;;22.50;99.90;;;;;;4923723;29;20207;-81
2022/10/16 10:50:40;;;;;;;8.73;8.23;;;22.50;99.90;;;;;;4945123;29;20190;-80
2022/10/16 10:53:19;;;;;;;8.53;8.03;;;22.40;99.90;;;;;;4946342;29;20226;-80
2022/10/16 10:55:52;;;;;;;9.27;8.77;;;22.30;99.90;;;;;;4931779;29;20780;-80
2022/10/16 10:58:44;;;;;;;8.07;7.47;;;22.30;99.90;;;;;;4929444;29;20211;-80
2022/10/16 11:01:14;;;;;;;9.57;9.07;;;22.20;99.90;;;;;;4922261;29;20711;-79
2022/10/16 11:04:09;;;;;;;9.20;8.70;;;22.20;99.90;;;;;;4925796;29;20234;-80
2022/10/16 11:06:41;;;;;;;10.40;9.70;;;22.10;99.90;;;;;;4925789;28;20244;-80
2022/10/16 11:09:13;;;;;;;10.00;9.40;;;22.20;99.90;;;;;;4944381;28;20618;-79
2022/10/16 11:11:45;;;;;;;9.37;8.77;;;22.10;99.90;;;;;;4948191;28;20665;-82
2022/10/16 11:14:18;;;;;;;10.27;9.57;;;22.10;99.90;;;;;;4927989;29;20218;-82
2022/10/16 11:16:50;;;;;;;10.17;9.40;;;22.20;99.90;;;;;;4947999;28;20215;-82
2022/10/16 11:19:36;;;;;;;9.07;7.30;;;22.20;99.90;;;;;;4946594;28;20207;-82
2022/10/16 11:22:13;;;;;;;4.30;3.90;;;22.30;99.90;;;;;;4947104;28;20202;-82
2022/10/16 11:24:46;;;;;;;8.23;7.53;;;22.30;99.90;;;;;;4947637;28;20282;-81
2022/10/16 11:27:19;;;;;;;7.93;7.33;;;22.40;99.90;;;;;;4945447;28;20230;-83
2022/10/16 11:29:51;;;;;;;9.67;9.07;;;22.30;99.90;;;;;;4927106;29;20605;-82
2022/10/16 11:32:24;;;;;;;8.53;8.00;;;22.40;99.90;;;;;;4947008;28;20198;-82
2022/10/16 11:34:56;;;;;;;9.33;8.80;;;22.40;99.90;;;;;;4918787;29;20211;-83
2022/10/16 11:37:31;;;;;;;7.00;6.60;;;22.40;99.90;;;;;;4946623;28;20226;-81
2022/10/16 11:40:11;;;;;;;4.70;4.37;;;22.50;99.90;;;;;;4940141;28;20194;-83
2022/10/16 11:42:42;;;;;;;2.70;2.50;;;22.40;99.90;;;;;;4923017;29;20207;-82
2022/10/16 11:45:22;;;;;;;4.10;3.80;;;22.40;99.90;;;;;;4944747;28;20199;-83
2022/10/16 11:47:57;;;;;;;8.00;7.57;;;22.40;99.90;;;;;;4926258;29;20198;-82
2022/10/16 11:50:30;;;;;;;10.80;9.93;;;22.40;99.90;;;;;;4944975;28;20216;-82
2022/10/16 11:53:05;;;;;;;11.20;10.20;;;22.40;99.90;;;;;;4918950;29;20203;-83
2022/10/16 11:55:37;;;;;;;13.97;12.97;;;22.30;99.90;;;;;;4926592;29;20203;-83
2022/10/16 11:58:08;;;;;;;9.87;9.07;;;22.20;99.90;;;;;;4919264;29;20207;-84
2022/10/16 12:00:41;;;;;;;10.60;9.63;;;22.20;99.90;;;;;;4929965;29;20187;-81
2022/10/16 12:03:19;;;;;;;10.13;9.23;;;22.30;99.90;;;;;;4946046;28;20213;-77
2022/10/16 12:06:12;;;;;;;11.57;8.03;;;22.30;99.90;;;;;;4921067;29;20226;-77
2022/10/16 12:08:41;;;;;;;10.07;7.90;;;22.30;99.90;;;;;;4923155;29;20718;-78
2022/10/16 12:11:11;;;;;;;8.93;7.30;;;22.30;99.90;;;;;;4945338;28;20202;-80
2022/10/16 12:13:40;;;;;;;11.93;9.17;;;22.30;99.90;;;;;;4939208;28;20203;-77
2022/10/16 12:16:20;;;;;;;9.00;6.43;;;22.30;99.90;;;;;;4922464;29;20227;-78
2022/10/16 12:18:48;;;;;;;6.87;5.80;;;22.40;99.90;;;;;;4945356;28;20273;-78
2022/10/16 12:21:18;;;;;;;7.10;5.63;;;22.40;99.90;;;;;;4922176;29;20207;-78
2022/10/16 12:23:52;;;;;;;12.33;11.27;;;22.40;99.90;;;;;;4949422;28;20676;-78
2022/10/16 12:26:26;;;;;;;5.70;5.10;;;22.40;99.90;;;;;;4929941;29;20234;-78
2022/10/16 12:28:53;;;;;;;5.77;5.17;;;22.40;99.90;;;;;;4922330;29;20291;-77
2022/10/16 12:31:21;;;;;;;8.53;7.20;;;22.40;99.90;;;;;;4946925;28;20191;-78
2022/10/16 12:33:59;;;;;;;6.47;5.87;;;22.50;99.90;;;;;;4948504;28;20214;-78
2022/10/16 12:36:31;;;;;;;7.33;5.70;;;22.40;99.90;;;;;;4939590;28;20223;-78
2022/10/16 12:39:00;;;;;;;7.27;6.57;;;22.50;99.90;;;;;;4928269;29;20230;-77
2022/10/16 12:41:29;;;;;;;5.23;4.70;;;22.50;99.90;;;;;;4921674;28;20203;-77
2022/10/16 12:43:57;;;;;;;7.37;6.67;;;22.50;99.90;;;;;;4932195;29;20186;-78
2022/10/16 12:46:39;;;;;;;9.57;8.87;;;22.50;99.90;;;;;;4941810;28;20219;-78
2022/10/16 12:49:24;;;;;;;9.37;8.77;;;22.50;99.90;;;;;;4922560;28;20218;-77
2022/10/16 12:51:51;;;;;;;9.13;8.33;;;22.40;99.90;;;;;;4921882;28;20199;-77
2022/10/16 12:54:22;;;;;;;7.97;7.23;;;22.30;99.90;;;;;;4952334;29;20195;-77